SLTZ weather

Tupiza Airport
Sud Chichas, Potosí Department, Bolivia

Public forecast

Using degrees Celsius for public forecast. Weather courtesy of forecast.io.

METAR (pilot weather report)

Report is more than 2 hours old.

Closest report is Capitan Oriel Lea Plaza Airport, 52.6 nm (97.5 km) ESE. Retrieved 2019/04/21 00:00 UTC (6 hours ago):

SLTJ 210000Z 15007KT 9999 BKN030 21/16 Q1018

TAF (pilot weather forecast)

Forecast is more than 12 hours old.

Closest forecast is Capitan Oriel Lea Plaza Airport, 52.6 nm (97.5 km) ESE. Retrieved 2019/04/20 00:20 UTC (1 day ago):

TAF SLTJ 202200Z 2100/2124 00000KT 9999 BKN027 TX27/2119Z TN16/2111Z TEMPO 2103/2105 6000 SHRA BKN023 FEW030CB BECMG 2114/2116 14010KT FEW027 SCT070 PROB30 TEMPO 2121/2123 6000 TSRA FEW030CB